CheckWX is a tool to help pilots better visualize weather data.  It is not intended as a substitute for an official pre-flight weather briefing.

12:29:49 UTC

T35 METAR
Cameron Municipal Airpark
Cameron, Texas, USA
Current

35 mins ago

KT35 131155Z AUTO 00000KT 10SM CLR M03/M05 A3035 RMK AO2 T10351051 11012 21036
Observed
Nov-13 @ 11:55 UTC
Visibility
10 SM
Flight Rules
VFR
Cloud Levels
  • Clear skies
Temperature
-4°C / 25°F
Dewpoint
-5°C / 23°F
Humidity
93%
Altimeter
30.35" Hg
Pressure
1027.82 hPa
Previous

1 hour ago

KT35 131115Z AUTO 00000KT 10SM CLR M03/M06 A3037 RMK AO2 T10301058
Observed
Nov-13 @ 11:15 UTC
Visibility
10 SM
Flight Rules
VFR
Cloud Levels
  • Clear skies
Temperature
-3°C / 27°F
Dewpoint
-6°C / 21°F
Humidity
80%
Altimeter
30.37" Hg
Pressure
1028.42 hPa
Previous

2 hours ago

KT35 131055Z AUTO 00000KT 10SM CLR M03/M06 A3038 RMK AO2 T10271059
Observed
Nov-13 @ 10:55 UTC
Visibility
10 SM
Flight Rules
VFR
Cloud Levels
  • Clear skies
Temperature
-3°C / 27°F
Dewpoint
-6°C / 21°F
Humidity
80%
Altimeter
30.38" Hg
Pressure
1028.82 hPa